sensor_id;sensor_type;location;lat;lon;timestamp;temperature;humidity
67868;SHT31;54672;46.096;14.470;2023-05-07T00:00:47;12.70;96.09
67868;SHT31;54672;46.096;14.470;2023-05-07T00:03:12;12.70;96.14
67868;SHT31;54672;46.096;14.470;2023-05-07T00:05:39;12.69;95.92
67868;SHT31;54672;46.096;14.470;2023-05-07T00:08:04;12.79;95.80
67868;SHT31;54672;46.096;14.470;2023-05-07T00:10:30;12.90;95.31
67868;SHT31;54672;46.096;14.470;2023-05-07T00:12:55;13.00;95.27
67868;SHT31;54672;46.096;14.470;2023-05-07T00:15:21;13.13;94.77
67868;SHT31;54672;46.096;14.470;2023-05-07T00:17:46;13.24;94.41
67868;SHT31;54672;46.096;14.470;2023-05-07T00:20:11;13.35;93.59
67868;SHT31;54672;46.096;14.470;2023-05-07T00:22:37;13.45;93.15
67868;SHT31;54672;46.096;14.470;2023-05-07T00:25:03;13.50;93.07
67868;SHT31;54672;46.096;14.470;2023-05-07T00:27:28;13.48;93.26
67868;SHT31;54672;46.096;14.470;2023-05-07T00:29:54;13.45;93.44
67868;SHT31;54672;46.096;14.470;2023-05-07T00:32:19;13.41;93.45
67868;SHT31;54672;46.096;14.470;2023-05-07T00:34:44;13.40;93.65
67868;SHT31;54672;46.096;14.470;2023-05-07T00:37:10;13.24;94.11
67868;SHT31;54672;46.096;14.470;2023-05-07T00:39:37;13.04;94.53
67868;SHT31;54672;46.096;14.470;2023-05-07T00:42:02;12.86;95.05
67868;SHT31;54672;46.096;14.470;2023-05-07T00:44:28;12.77;95.56
67868;SHT31;54672;46.096;14.470;2023-05-07T00:46:53;12.82;95.48
67868;SHT31;54672;46.096;14.470;2023-05-07T00:49:20;12.87;95.26
67868;SHT31;54672;46.096;14.470;2023-05-07T00:51:45;12.89;95.11
67868;SHT31;54672;46.096;14.470;2023-05-07T00:54:12;12.83;95.15
67868;SHT31;54672;46.096;14.470;2023-05-07T00:56:38;12.79;95.21
67868;SHT31;54672;46.096;14.470;2023-05-07T00:59:05;12.83;95.11
67868;SHT31;54672;46.096;14.470;2023-05-07T01:01:31;12.83;95.10
67868;SHT31;54672;46.096;14.470;2023-05-07T01:03:57;12.84;95.01
67868;SHT31;54672;46.096;14.470;2023-05-07T01:06:23;12.89;94.86
67868;SHT31;54672;46.096;14.470;2023-05-07T01:08:50;12.82;94.88
67868;SHT31;54672;46.096;14.470;2023-05-07T01:11:18;12.73;95.16
67868;SHT31;54672;46.096;14.470;2023-05-07T01:13:46;12.65;95.19
67868;SHT31;54672;46.096;14.470;2023-05-07T01:16:12;12.56;95.63
67868;SHT31;54672;46.096;14.470;2023-05-07T01:18:37;12.44;96.21
67868;SHT31;54672;46.096;14.470;2023-05-07T01:21:04;12.32;96.36
67868;SHT31;54672;46.096;14.470;2023-05-07T01:23:30;12.22;96.63
67868;SHT31;54672;46.096;14.470;2023-05-07T01:25:55;12.14;96.82
67868;SHT31;54672;46.096;14.470;2023-05-07T01:28:21;12.10;96.81
67868;SHT31;54672;46.096;14.470;2023-05-07T01:30:51;12.07;97.42
67868;SHT31;54672;46.096;14.470;2023-05-07T01:33:20;11.98;97.52
67868;SHT31;54672;46.096;14.470;2023-05-07T01:35:49;11.99;97.57
67868;SHT31;54672;46.096;14.470;2023-05-07T01:38:16;12.01;97.45
67868;SHT31;54672;46.096;14.470;2023-05-07T01:40:42;11.94;97.27
67868;SHT31;54672;46.096;14.470;2023-05-07T01:43:09;11.90;97.26
67868;SHT31;54672;46.096;14.470;2023-05-07T01:45:34;11.85;97.23
67868;SHT31;54672;46.096;14.470;2023-05-07T01:48:01;11.84;97.31
67868;SHT31;54672;46.096;14.470;2023-05-07T01:50:27;11.84;97.34
67868;SHT31;54672;46.096;14.470;2023-05-07T01:52:52;11.80;97.48
67868;SHT31;54672;46.096;14.470;2023-05-07T01:55:18;11.90;97.52
67868;SHT31;54672;46.096;14.470;2023-05-07T01:57:43;11.90;97.32
67868;SHT31;54672;46.096;14.470;2023-05-07T02:00:09;11.84;97.29
67868;SHT31;54672;46.096;14.470;2023-05-07T02:02:35;11.80;97.37
67868;SHT31;54672;46.096;14.470;2023-05-07T02:05:00;11.76;97.27
67868;SHT31;54672;46.096;14.470;2023-05-07T02:07:27;11.73;97.30
67868;SHT31;54672;46.096;14.470;2023-05-07T02:09:52;11.67;97.32
67868;SHT31;54672;46.096;14.470;2023-05-07T02:12:18;11.80;97.58
67868;SHT31;54672;46.096;14.470;2023-05-07T02:14:43;11.83;97.32
67868;SHT31;54672;46.096;14.470;2023-05-07T02:17:08;11.77;97.19
67868;SHT31;54672;46.096;14.470;2023-05-07T02:19:34;11.64;97.32
67868;SHT31;54672;46.096;14.470;2023-05-07T02:21:59;11.53;97.48
67868;SHT31;54672;46.096;14.470;2023-05-07T02:24:24;11.36;97.91
67868;SHT31;54672;46.096;14.470;2023-05-07T02:26:50;11.39;97.89
67868;SHT31;54672;46.096;14.470;2023-05-07T02:29:15;11.37;97.76
67868;SHT31;54672;46.096;14.470;2023-05-07T02:31:41;11.36;97.77
67868;SHT31;54672;46.096;14.470;2023-05-07T02:34:06;11.32;97.99
67868;SHT31;54672;46.096;14.470;2023-05-07T02:36:31;11.27;97.94
67868;SHT31;54672;46.096;14.470;2023-05-07T02:38:57;11.23;97.86
67868;SHT31;54672;46.096;14.470;2023-05-07T02:41:22;11.26;97.85
67868;SHT31;54672;46.096;14.470;2023-05-07T02:43:47;11.23;97.86
67868;SHT31;54672;46.096;14.470;2023-05-07T02:46:13;11.19;97.87
67868;SHT31;54672;46.096;14.470;2023-05-07T02:48:38;11.16;97.84
67868;SHT31;54672;46.096;14.470;2023-05-07T02:51:04;11.14;97.89
67868;SHT31;54672;46.096;14.470;2023-05-07T02:53:30;11.15;98.20
67868;SHT31;54672;46.096;14.470;2023-05-07T02:55:57;11.16;98.02
67868;SHT31;54672;46.096;14.470;2023-05-07T02:58:23;11.14;97.90
67868;SHT31;54672;46.096;14.470;2023-05-07T03:00:48;11.08;98.03
67868;SHT31;54672;46.096;14.470;2023-05-07T03:03:14;10.98;98.01
67868;SHT31;54672;46.096;14.470;2023-05-07T03:05:40;10.92;97.97
67868;SHT31;54672;46.096;14.470;2023-05-07T03:08:05;10.89;97.95
67868;SHT31;54672;46.096;14.470;2023-05-07T03:10:31;10.92;97.97
67868;SHT31;54672;46.096;14.470;2023-05-07T03:12:56;10.94;97.85
67868;SHT31;54672;46.096;14.470;2023-05-07T03:15:22;10.82;97.58
67868;SHT31;54672;46.096;14.470;2023-05-07T03:17:48;10.71;97.73
67868;SHT31;54672;46.096;14.470;2023-05-07T03:20:13;10.68;97.78
67868;SHT31;54672;46.096;14.470;2023-05-07T03:22:39;10.64;97.82
67868;SHT31;54672;46.096;14.470;2023-05-07T03:25:04;10.72;97.95
67868;SHT31;54672;46.096;14.470;2023-05-07T03:27:30;10.84;97.93
67868;SHT31;54672;46.096;14.470;2023-05-07T03:29:55;10.85;97.87
67868;SHT31;54672;46.096;14.470;2023-05-07T03:32:21;10.85;97.90
67868;SHT31;54672;46.096;14.470;2023-05-07T03:34:46;10.82;98.02
67868;SHT31;54672;46.096;14.470;2023-05-07T03:37:12;10.86;98.12
67868;SHT31;54672;46.096;14.470;2023-05-07T03:39:37;10.85;98.09
67868;SHT31;54672;46.096;14.470;2023-05-07T03:42:02;10.77;98.10
67868;SHT31;54672;46.096;14.470;2023-05-07T03:44:28;10.72;98.14
67868;SHT31;54672;46.096;14.470;2023-05-07T03:46:54;10.74;98.28
67868;SHT31;54672;46.096;14.470;2023-05-07T03:49:20;10.81;98.39
67868;SHT31;54672;46.096;14.470;2023-05-07T03:51:46;10.85;98.48
67868;SHT31;54672;46.096;14.470;2023-05-07T03:54:11;10.92;98.45
67868;SHT31;54672;46.096;14.470;2023-05-07T03:56:36;10.98;97.91
67868;SHT31;54672;46.096;14.470;2023-05-07T03:59:02;11.02;97.22
67868;SHT31;54672;46.096;14.470;2023-05-07T04:01:27;11.23;97.02
67868;SHT31;54672;46.096;14.470;2023-05-07T04:03:53;11.50;96.00
67868;SHT31;54672;46.096;14.470;2023-05-07T04:06:21;11.97;95.30
67868;SHT31;54672;46.096;14.470;2023-05-07T04:08:46;12.69;94.19
67868;SHT31;54672;46.096;14.470;2023-05-07T04:11:11;13.20;91.75
67868;SHT31;54672;46.096;14.470;2023-05-07T04:13:37;13.93;88.85
67868;SHT31;54672;46.096;14.470;2023-05-07T04:16:03;14.38;87.53
67868;SHT31;54672;46.096;14.470;2023-05-07T04:18:29;15.09;85.23
67868;SHT31;54672;46.096;14.470;2023-05-07T04:20:54;15.74;82.06
67868;SHT31;54672;46.096;14.470;2023-05-07T04:23:20;16.31;79.62
67868;SHT31;54672;46.096;14.470;2023-05-07T04:25:45;16.21;78.68
67868;SHT31;54672;46.096;14.470;2023-05-07T04:28:11;14.12;84.09
67868;SHT31;54672;46.096;14.470;2023-05-07T04:30:37;13.25;87.10
67868;SHT31;54672;46.096;14.470;2023-05-07T04:33:02;12.52;89.81
67868;SHT31;54672;46.096;14.470;2023-05-07T04:35:28;12.18;90.90
67868;SHT31;54672;46.096;14.470;2023-05-07T04:37:53;12.04;91.67
67868;SHT31;54672;46.096;14.470;2023-05-07T04:40:18;12.20;91.77
67868;SHT31;54672;46.096;14.470;2023-05-07T04:42:44;13.13;89.99
67868;SHT31;54672;46.096;14.470;2023-05-07T04:45:09;14.03;87.07
67868;SHT31;54672;46.096;14.470;2023-05-07T04:47:35;14.99;83.76
67868;SHT31;54672;46.096;14.470;2023-05-07T04:50:01;15.31;81.52
67868;SHT31;54672;46.096;14.470;2023-05-07T04:52:26;15.04;82.40
67868;SHT31;54672;46.096;14.470;2023-05-07T04:54:52;14.71;84.28
67868;SHT31;54672;46.096;14.470;2023-05-07T04:57:17;14.73;84.30
67868;SHT31;54672;46.096;14.470;2023-05-07T04:59:43;16.35;79.86
67868;SHT31;54672;46.096;14.470;2023-05-07T05:02:10;18.30;73.22
67868;SHT31;54672;46.096;14.470;2023-05-07T05:04:36;19.41;69.20
67868;SHT31;54672;46.096;14.470;2023-05-07T05:07:02;19.86;67.28
67868;SHT31;54672;46.096;14.470;2023-05-07T05:09:28;20.95;63.72
67868;SHT31;54672;46.096;14.470;2023-05-07T05:11:54;20.78;63.67
67868;SHT31;54672;46.096;14.470;2023-05-07T05:14:19;19.65;67.75
67868;SHT31;54672;46.096;14.470;2023-05-07T05:16:45;19.38;67.17
67868;SHT31;54672;46.096;14.470;2023-05-07T05:19:10;18.90;69.99
67868;SHT31;54672;46.096;14.470;2023-05-07T05:21:35;17.04;75.48
67868;SHT31;54672;46.096;14.470;2023-05-07T05:24:01;17.12;76.24
67868;SHT31;54672;46.096;14.470;2023-05-07T05:26:26;17.86;74.45
67868;SHT31;54672;46.096;14.470;2023-05-07T05:28:51;18.15;73.00
67868;SHT31;54672;46.096;14.470;2023-05-07T05:31:17;20.00;68.96
67868;SHT31;54672;46.096;14.470;2023-05-07T05:33:42;21.80;63.06
67868;SHT31;54672;46.096;14.470;2023-05-07T05:36:10;23.41;58.27
67868;SHT31;54672;46.096;14.470;2023-05-07T05:38:37;22.83;57.24
67868;SHT31;54672;46.096;14.470;2023-05-07T05:41:03;21.61;62.47
67868;SHT31;54672;46.096;14.470;2023-05-07T05:43:28;22.96;58.31
67868;SHT31;54672;46.096;14.470;2023-05-07T05:45:55;23.45;56.92
67868;SHT31;54672;46.096;14.470;2023-05-07T05:48:21;22.96;57.81
67868;SHT31;54672;46.096;14.470;2023-05-07T05:50:46;22.80;59.07
67868;SHT31;54672;46.096;14.470;2023-05-07T05:53:11;23.11;58.27
67868;SHT31;54672;46.096;14.470;2023-05-07T05:55:37;23.17;57.96
67868;SHT31;54672;46.096;14.470;2023-05-07T05:58:02;22.90;58.77
67868;SHT31;54672;46.096;14.470;2023-05-07T06:00:28;23.38;57.62
67868;SHT31;54672;46.096;14.470;2023-05-07T06:02:54;23.49;57.42
67868;SHT31;54672;46.096;14.470;2023-05-07T06:05:20;23.45;57.89
67868;SHT31;54672;46.096;14.470;2023-05-07T06:07:45;23.63;56.55
67868;SHT31;54672;46.096;14.470;2023-05-07T06:10:10;23.96;56.30
67868;SHT31;54672;46.096;14.470;2023-05-07T06:12:36;24.64;54.71
67868;SHT31;54672;46.096;14.470;2023-05-07T06:15:01;24.58;54.12
67868;SHT31;54672;46.096;14.470;2023-05-07T06:17:27;24.85;53.50
67868;SHT31;54672;46.096;14.470;2023-05-07T06:19:52;24.67;54.32
67868;SHT31;54672;46.096;14.470;2023-05-07T06:22:18;25.29;53.31
67868;SHT31;54672;46.096;14.470;2023-05-07T06:24:43;24.95;53.53
67868;SHT31;54672;46.096;14.470;2023-05-07T06:27:09;25.50;52.24
67868;SHT31;54672;46.096;14.470;2023-05-07T06:29:34;24.31;54.77
67868;SHT31;54672;46.096;14.470;2023-05-07T06:32:10;25.07;53.18
67868;SHT31;54672;46.096;14.470;2023-05-07T06:34:36;25.69;51.73
67868;SHT31;54672;46.096;14.470;2023-05-07T06:37:01;25.56;52.52
67868;SHT31;54672;46.096;14.470;2023-05-07T06:39:26;25.01;53.72
67868;SHT31;54672;46.096;14.470;2023-05-07T06:41:52;23.18;57.41
67868;SHT31;54672;46.096;14.470;2023-05-07T06:44:18;23.27;58.04
67868;SHT31;54672;46.096;14.470;2023-05-07T06:46:43;23.88;56.64
67868;SHT31;54672;46.096;14.470;2023-05-07T06:49:08;23.79;56.90
67868;SHT31;54672;46.096;14.470;2023-05-07T06:51:34;23.78;56.97
67868;SHT31;54672;46.096;14.470;2023-05-07T06:54:00;23.30;58.38
67868;SHT31;54672;46.096;14.470;2023-05-07T06:56:25;24.41;55.67
67868;SHT31;54672;46.096;14.470;2023-05-07T06:58:50;22.50;61.57
67868;SHT31;54672;46.096;14.470;2023-05-07T07:01:16;24.78;54.71
67868;SHT31;54672;46.096;14.470;2023-05-07T07:03:41;25.05;53.08
67868;SHT31;54672;46.096;14.470;2023-05-07T07:06:07;25.16;53.15
67868;SHT31;54672;46.096;14.470;2023-05-07T07:08:32;24.34;54.72
67868;SHT31;54672;46.096;14.470;2023-05-07T07:10:58;25.80;52.74
67868;SHT31;54672;46.096;14.470;2023-05-07T07:13:23;25.97;51.67
67868;SHT31;54672;46.096;14.470;2023-05-07T07:15:49;26.39;50.37
67868;SHT31;54672;46.096;14.470;2023-05-07T07:18:14;26.32;50.07
67868;SHT31;54672;46.096;14.470;2023-05-07T07:20:40;26.76;49.89
67868;SHT31;54672;46.096;14.470;2023-05-07T07:23:05;27.64;47.87
67868;SHT31;54672;46.096;14.470;2023-05-07T07:25:31;27.96;47.19
67868;SHT31;54672;46.096;14.470;2023-05-07T07:27:57;26.63;49.57
67868;SHT31;54672;46.096;14.470;2023-05-07T07:30:22;27.00;48.90
67868;SHT31;54672;46.096;14.470;2023-05-07T07:32:47;27.10;48.62
67868;SHT31;54672;46.096;14.470;2023-05-07T07:35:14;26.92;49.75
67868;SHT31;54672;46.096;14.470;2023-05-07T07:37:39;26.99;49.71
67868;SHT31;54672;46.096;14.470;2023-05-07T07:40:05;26.44;50.14
67868;SHT31;54672;46.096;14.470;2023-05-07T07:42:31;26.17;50.38
67868;SHT31;54672;46.096;14.470;2023-05-07T07:44:56;25.59;51.78
67868;SHT31;54672;46.096;14.470;2023-05-07T07:47:22;25.96;51.13
67868;SHT31;54672;46.096;14.470;2023-05-07T07:49:48;26.02;51.22
67868;SHT31;54672;46.096;14.470;2023-05-07T07:52:13;26.78;49.31
67868;SHT31;54672;46.096;14.470;2023-05-07T07:54:38;26.72;49.02
67868;SHT31;54672;46.096;14.470;2023-05-07T07:57:04;26.69;50.04
67868;SHT31;54672;46.096;14.470;2023-05-07T07:59:30;26.86;49.44
67868;SHT31;54672;46.096;14.470;2023-05-07T08:01:55;26.52;49.81
67868;SHT31;54672;46.096;14.470;2023-05-07T08:04:22;26.83;49.14
67868;SHT31;54672;46.096;14.470;2023-05-07T08:06:47;26.39;50.22
67868;SHT31;54672;46.096;14.470;2023-05-07T08:09:13;26.13;50.51
67868;SHT31;54672;46.096;14.470;2023-05-07T08:11:39;24.92;52.76
67868;SHT31;54672;46.096;14.470;2023-05-07T08:14:04;25.25;52.46
67868;SHT31;54672;46.096;14.470;2023-05-07T08:16:30;25.14;52.34
67868;SHT31;54672;46.096;14.470;2023-05-07T08:18:55;24.94;52.47
67868;SHT31;54672;46.096;14.470;2023-05-07T08:21:22;25.19;51.49
67868;SHT31;54672;46.096;14.470;2023-05-07T08:23:48;24.78;52.45
67868;SHT31;54672;46.096;14.470;2023-05-07T08:26:13;24.68;52.41
67868;SHT31;54672;46.096;14.470;2023-05-07T08:28:38;24.67;52.88
67868;SHT31;54672;46.096;14.470;2023-05-07T08:31:05;24.91;52.03
67868;SHT31;54672;46.096;14.470;2023-05-07T08:33:30;25.16;50.31
67868;SHT31;54672;46.096;14.470;2023-05-07T08:35:56;25.36;51.25
67868;SHT31;54672;46.096;14.470;2023-05-07T08:38:21;25.80;50.34
67868;SHT31;54672;46.096;14.470;2023-05-07T08:40:47;25.15;51.00
67868;SHT31;54672;46.096;14.470;2023-05-07T08:43:13;24.88;51.67
67868;SHT31;54672;46.096;14.470;2023-05-07T08:45:41;24.61;51.66
67868;SHT31;54672;46.096;14.470;2023-05-07T08:48:15;25.28;51.08
67868;SHT31;54672;46.096;14.470;2023-05-07T08:50:40;25.16;51.23
67868;SHT31;54672;46.096;14.470;2023-05-07T08:53:06;25.16;52.63
67868;SHT31;54672;46.096;14.470;2023-05-07T08:55:31;25.39;51.20
67868;SHT31;54672;46.096;14.470;2023-05-07T08:57:58;25.88;51.69
67868;SHT31;54672;46.096;14.470;2023-05-07T09:00:24;26.10;49.82
67868;SHT31;54672;46.096;14.470;2023-05-07T09:02:49;26.32;49.84
67868;SHT31;54672;46.096;14.470;2023-05-07T09:05:15;27.23;47.91
67868;SHT31;54672;46.096;14.470;2023-05-07T09:07:40;26.99;48.81
67868;SHT31;54672;46.096;14.470;2023-05-07T09:10:06;26.55;49.84
67868;SHT31;54672;46.096;14.470;2023-05-07T09:12:32;26.25;49.72
67868;SHT31;54672;46.096;14.470;2023-05-07T09:14:58;25.42;50.43
67868;SHT31;54672;46.096;14.470;2023-05-07T09:17:24;25.47;52.37
67868;SHT31;54672;46.096;14.470;2023-05-07T09:19:49;25.69;50.73
67868;SHT31;54672;46.096;14.470;2023-05-07T09:22:15;25.43;52.02
67868;SHT31;54672;46.096;14.470;2023-05-07T09:24:47;24.60;53.76
67868;SHT31;54672;46.096;14.470;2023-05-07T09:27:13;23.58;55.99
67868;SHT31;54672;46.096;14.470;2023-05-07T09:29:38;23.38;57.10
67868;SHT31;54672;46.096;14.470;2023-05-07T09:32:08;23.22;57.23
67868;SHT31;54672;46.096;14.470;2023-05-07T09:34:34;22.04;60.35
67868;SHT31;54672;46.096;14.470;2023-05-07T09:37:04;22.09;61.20
67868;SHT31;54672;46.096;14.470;2023-05-07T09:39:59;22.39;57.48
67868;SHT31;54672;46.096;14.470;2023-05-07T09:42:24;22.83;57.04
67868;SHT31;54672;46.096;14.470;2023-05-07T09:44:53;23.18;55.98
67868;SHT31;54672;46.096;14.470;2023-05-07T09:47:19;23.42;55.74
67868;SHT31;54672;46.096;14.470;2023-05-07T09:49:47;23.27;56.34
67868;SHT31;54672;46.096;14.470;2023-05-07T09:52:14;23.71;56.43
67868;SHT31;54672;46.096;14.470;2023-05-07T09:54:40;23.73;54.92
67868;SHT31;54672;46.096;14.470;2023-05-07T09:57:10;23.49;55.41
67868;SHT31;54672;46.096;14.470;2023-05-07T09:59:37;23.71;56.35
67868;SHT31;54672;46.096;14.470;2023-05-07T10:02:03;23.47;55.60
67868;SHT31;54672;46.096;14.470;2023-05-07T10:04:29;23.71;55.37
67868;SHT31;54672;46.096;14.470;2023-05-07T10:06:55;24.02;52.85
67868;SHT31;54672;46.096;14.470;2023-05-07T10:09:21;23.75;54.13
67868;SHT31;54672;46.096;14.470;2023-05-07T10:11:48;23.58;54.74
67868;SHT31;54672;46.096;14.470;2023-05-07T10:14:14;24.00;52.55
67868;SHT31;54672;46.096;14.470;2023-05-07T10:16:40;24.14;51.81
67868;SHT31;54672;46.096;14.470;2023-05-07T10:19:08;24.40;51.05
67868;SHT31;54672;46.096;14.470;2023-05-07T10:21:39;24.58;51.35
67868;SHT31;54672;46.096;14.470;2023-05-07T10:24:15;24.51;52.94
67868;SHT31;54672;46.096;14.470;2023-05-07T10:26:43;24.68;52.72
67868;SHT31;54672;46.096;14.470;2023-05-07T10:29:15;24.89;51.29
67868;SHT31;54672;46.096;14.470;2023-05-07T10:34:17;24.88;51.62
67868;SHT31;54672;46.096;14.470;2023-05-07T10:36:44;24.75;52.21
67868;SHT31;54672;46.096;14.470;2023-05-07T10:39:10;24.50;52.93
67868;SHT31;54672;46.096;14.470;2023-05-07T10:41:35;24.50;54.47
67868;SHT31;54672;46.096;14.470;2023-05-07T10:44:02;24.61;53.60
67868;SHT31;54672;46.096;14.470;2023-05-07T10:46:27;24.50;54.09
67868;SHT31;54672;46.096;14.470;2023-05-07T10:51:28;24.95;54.10
67868;SHT31;54672;46.096;14.470;2023-05-07T10:54:23;24.94;51.48
67868;SHT31;54672;46.096;14.470;2023-05-07T10:56:49;24.81;52.32
67868;SHT31;54672;46.096;14.470;2023-05-07T11:01:54;24.61;52.00
67868;SHT31;54672;46.096;14.470;2023-05-07T11:04:19;24.67;51.35
67868;SHT31;54672;46.096;14.470;2023-05-07T11:12:16;24.08;54.10
67868;SHT31;54672;46.096;14.470;2023-05-07T11:17:08;23.88;54.02
67868;SHT31;54672;46.096;14.470;2023-05-07T11:19:54;24.46;52.97
67868;SHT31;54672;46.096;14.470;2023-05-07T11:25:06;24.20;53.73
67868;SHT31;54672;46.096;14.470;2023-05-07T11:27:32;24.13;53.56
67868;SHT31;54672;46.096;14.470;2023-05-07T11:29:58;24.81;51.92
67868;SHT31;54672;46.096;14.470;2023-05-07T11:32:31;24.44;51.03
67868;SHT31;54672;46.096;14.470;2023-05-07T11:34:59;25.02;50.17
67868;SHT31;54672;46.096;14.470;2023-05-07T11:37:25;25.56;48.84
67868;SHT31;54672;46.096;14.470;2023-05-07T11:40:05;25.77;47.82
67868;SHT31;54672;46.096;14.470;2023-05-07T11:42:33;25.60;48.10
67868;SHT31;54672;46.096;14.470;2023-05-07T11:45:00;25.67;47.76
67868;SHT31;54672;46.096;14.470;2023-05-07T11:47:26;25.50;48.94
67868;SHT31;54672;46.096;14.470;2023-05-07T11:49:54;25.79;48.60
67868;SHT31;54672;46.096;14.470;2023-05-07T11:52:22;25.90;47.34
67868;SHT31;54672;46.096;14.470;2023-05-07T11:54:55;25.90;47.15
67868;SHT31;54672;46.096;14.470;2023-05-07T11:57:22;25.91;48.36
67868;SHT31;54672;46.096;14.470;2023-05-07T11:59:53;26.22;47.24
67868;SHT31;54672;46.096;14.470;2023-05-07T12:02:18;26.21;47.15
67868;SHT31;54672;46.096;14.470;2023-05-07T12:04:44;26.28;46.49
67868;SHT31;54672;46.096;14.470;2023-05-07T12:07:16;26.37;46.95
67868;SHT31;54672;46.096;14.470;2023-05-07T12:09:42;26.62;46.68
67868;SHT31;54672;46.096;14.470;2023-05-07T12:12:07;26.76;46.54
67868;SHT31;54672;46.096;14.470;2023-05-07T12:14:40;26.80;45.58
67868;SHT31;54672;46.096;14.470;2023-05-07T12:17:07;27.00;45.37
67868;SHT31;54672;46.096;14.470;2023-05-07T12:19:34;27.11;45.11
67868;SHT31;54672;46.096;14.470;2023-05-07T12:22:00;26.96;44.43
67868;SHT31;54672;46.096;14.470;2023-05-07T12:24:26;26.22;46.29
67868;SHT31;54672;46.096;14.470;2023-05-07T12:26:51;26.51;45.47
67868;SHT31;54672;46.096;14.470;2023-05-07T12:29:21;26.69;45.65
67868;SHT31;54672;46.096;14.470;2023-05-07T12:31:46;26.72;46.17
67868;SHT31;54672;46.096;14.470;2023-05-07T12:34:12;26.85;46.13
67868;SHT31;54672;46.096;14.470;2023-05-07T12:36:39;27.02;46.10
67868;SHT31;54672;46.096;14.470;2023-05-07T12:39:05;27.16;46.33
67868;SHT31;54672;46.096;14.470;2023-05-07T12:41:36;27.50;44.50
67868;SHT31;54672;46.096;14.470;2023-05-07T12:44:04;27.59;44.57
67868;SHT31;54672;46.096;14.470;2023-05-07T12:46:30;28.16;40.82
67868;SHT31;54672;46.096;14.470;2023-05-07T12:48:55;28.16;43.09
67868;SHT31;54672;46.096;14.470;2023-05-07T12:51:20;28.19;42.16
67868;SHT31;54672;46.096;14.470;2023-05-07T12:53:46;28.08;41.31
67868;SHT31;54672;46.096;14.470;2023-05-07T12:56:11;27.94;41.79
67868;SHT31;54672;46.096;14.470;2023-05-07T12:58:36;28.08;41.83
67868;SHT31;54672;46.096;14.470;2023-05-07T13:01:06;27.81;41.94
67868;SHT31;54672;46.096;14.470;2023-05-07T13:03:34;27.98;42.03
67868;SHT31;54672;46.096;14.470;2023-05-07T13:06:08;27.40;42.23
67868;SHT31;54672;46.096;14.470;2023-05-07T13:08:39;27.37;42.98
67868;SHT31;54672;46.096;14.470;2023-05-07T13:11:07;27.54;43.31
67868;SHT31;54672;46.096;14.470;2023-05-07T13:13:35;27.43;42.78
67868;SHT31;54672;46.096;14.470;2023-05-07T13:16:01;27.54;43.69
67868;SHT31;54672;46.096;14.470;2023-05-07T13:18:29;27.78;43.64
67868;SHT31;54672;46.096;14.470;2023-05-07T13:20:55;27.80;43.18
67868;SHT31;54672;46.096;14.470;2023-05-07T13:23:20;27.94;43.05
67868;SHT31;54672;46.096;14.470;2023-05-07T13:25:46;27.80;43.78
67868;SHT31;54672;46.096;14.470;2023-05-07T13:28:11;27.20;46.04
67868;SHT31;54672;46.096;14.470;2023-05-07T13:30:37;26.80;48.62
67868;SHT31;54672;46.096;14.470;2023-05-07T13:33:02;26.17;51.08
67868;SHT31;54672;46.096;14.470;2023-05-07T13:35:28;25.98;52.48
67868;SHT31;54672;46.096;14.470;2023-05-07T13:37:53;25.84;53.50
67868;SHT31;54672;46.096;14.470;2023-05-07T13:40:20;25.59;53.50
67868;SHT31;54672;46.096;14.470;2023-05-07T13:42:46;25.35;54.36
67868;SHT31;54672;46.096;14.470;2023-05-07T13:45:12;25.18;54.79
67868;SHT31;54672;46.096;14.470;2023-05-07T13:47:40;25.01;55.28
67868;SHT31;54672;46.096;14.470;2023-05-07T13:50:06;24.74;56.25
67868;SHT31;54672;46.096;14.470;2023-05-07T13:52:32;24.63;56.07
67868;SHT31;54672;46.096;14.470;2023-05-07T13:54:57;24.50;56.57
67868;SHT31;54672;46.096;14.470;2023-05-07T13:57:23;24.54;57.38
67868;SHT31;54672;46.096;14.470;2023-05-07T13:59:49;24.50;57.25
67868;SHT31;54672;46.096;14.470;2023-05-07T14:02:14;24.60;57.35
67868;SHT31;54672;46.096;14.470;2023-05-07T14:04:40;24.37;56.89
67868;SHT31;54672;46.096;14.470;2023-05-07T14:07:05;24.44;56.72
67868;SHT31;54672;46.096;14.470;2023-05-07T14:09:31;24.53;56.91
67868;SHT31;54672;46.096;14.470;2023-05-07T14:11:56;24.72;55.12
67868;SHT31;54672;46.096;14.470;2023-05-07T14:14:21;24.56;54.46
67868;SHT31;54672;46.096;14.470;2023-05-07T14:16:47;24.36;53.68
67868;SHT31;54672;46.096;14.470;2023-05-07T14:19:12;24.40;52.79
67868;SHT31;54672;46.096;14.470;2023-05-07T14:21:38;24.34;53.01
67868;SHT31;54672;46.096;14.470;2023-05-07T14:24:05;24.34;54.04
67868;SHT31;54672;46.096;14.470;2023-05-07T14:26:31;24.27;53.03
67868;SHT31;54672;46.096;14.470;2023-05-07T14:28:56;24.03;52.91
67868;SHT31;54672;46.096;14.470;2023-05-07T14:31:23;24.21;53.48
67868;SHT31;54672;46.096;14.470;2023-05-07T14:33:49;24.30;54.33
67868;SHT31;54672;46.096;14.470;2023-05-07T14:36:18;24.10;55.42
67868;SHT31;54672;46.096;14.470;2023-05-07T14:38:48;24.19;56.21
67868;SHT31;54672;46.096;14.470;2023-05-07T14:41:13;23.93;57.98
67868;SHT31;54672;46.096;14.470;2023-05-07T14:43:40;23.95;58.78
67868;SHT31;54672;46.096;14.470;2023-05-07T14:46:05;24.14;58.81
67868;SHT31;54672;46.096;14.470;2023-05-07T14:48:30;23.90;58.57
67868;SHT31;54672;46.096;14.470;2023-05-07T14:50:56;23.63;60.57
67868;SHT31;54672;46.096;14.470;2023-05-07T14:53:22;23.71;60.94
67868;SHT31;54672;46.096;14.470;2023-05-07T14:55:48;23.66;61.34
67868;SHT31;54672;46.096;14.470;2023-05-07T14:58:13;23.68;61.11
67868;SHT31;54672;46.096;14.470;2023-05-07T15:00:39;23.79;60.99
67868;SHT31;54672;46.096;14.470;2023-05-07T15:03:09;23.86;61.14
67868;SHT31;54672;46.096;14.470;2023-05-07T15:05:36;23.78;60.98
67868;SHT31;54672;46.096;14.470;2023-05-07T15:08:01;23.95;58.52
67868;SHT31;54672;46.096;14.470;2023-05-07T15:10:27;23.73;57.52
67868;SHT31;54672;46.096;14.470;2023-05-07T15:12:53;23.95;57.12
67868;SHT31;54672;46.096;14.470;2023-05-07T15:15:18;24.10;56.68
67868;SHT31;54672;46.096;14.470;2023-05-07T15:17:43;23.80;55.52
67868;SHT31;54672;46.096;14.470;2023-05-07T15:20:09;24.06;54.71
67868;SHT31;54672;46.096;14.470;2023-05-07T15:22:35;23.96;55.49
67868;SHT31;54672;46.096;14.470;2023-05-07T15:25:04;24.02;55.17
67868;SHT31;54672;46.096;14.470;2023-05-07T15:27:30;23.98;54.69